Terminal Aerodrome Forecast
Issued by NWS Boston, MA

Home | Current Version | Previous Version | Text Only | Print | Product List | Glossary On
Versions: 1 2 3 4 5 6 7 8 9 10 11 12 13 14 15 16 17 18 19 20 21 22 23 24 25 26 27 28 29 30 31 32 33 34
000
FTUS41 KBOX 172026 AAA
TAFBOS
TAF AMD
KBOS 172026Z 1720/1824 11010KT P6SM SCT050
     FM172300 16006KT P6SM SKC
     FM180200 23005KT P6SM SKC
     FM181100 29007KT P6SM SKC
     FM181600 35007KT P6SM SCT050 SCT250
     FM181900 05010KT P6SM BKN050=

USA.gov is the U.S. government's official web portal to all federal, state and local government web resources and services.